Accueil
METAR-TAF:

METAR-TAF

Aéroports :

Aéroport de Milaga

Tripoli, Libye

latitude: 32-54N, longitude: 13-17E, altitude: 11 m

METAR: absent

Heure: 20:21 (18:21 UTC)

Prévision

Le bulletin a été fait il y a 13 heures et 21 minutes, à 05:00 UTC
Prévision valable du 23 à 06 UTC au 24 à 06 UTC
Vent 2 kt de direction variable
Visibilité: 8000 m
Quelques nuages à une hauteur de 2500 ft
Nuages épars à une hauteur de 8000 ft
Evoluant progressivement
du 23 à 12 UTC au 22 à 14 UTC
Vent 14 kt de nord/nord-est
Evoluant progressivement
du 23 à 22 UTC au 22 à 24 UTC
Vent 14 kt de est

TAF: HLLM 230500Z 2306/2406 VRB02KT 8000 FEW025 SCT080 BECMG 2312/2214 03014KT BECMG 2322/2224 09014KT

Observations et prévisions météorologiques de plus de 4000 aéroports (messages METAR et TAF).

Les stations disponibles sont représentées par des disques jaunes et rouges sur la carte.

Passer la souris dessus pour voir le nom de la station.

Cliquer dessus pour voir les observations et prévisions météorologiques.

Pour changer de carte: cliquez sur les boutons verts avec une croix noire pour zoomer, sur le bouton vert avec un tiret pour effectuer un zoom arrière, ou sur les flèches vertes pour les cartes adjacentes.


METAR-TAF: